Time;durP1;ratioP1;P1;durP2;ratioP2;P2;SDS_P1;SDS_P2;PMS_P1;PMS_P2;Temp;Humidity;BMP_temperature;BMP_pressure;BME280_temperature;BME280_humidity;BME280_pressure;Samples;Min_cycle;Max_cycle;Signal;HPM_P1;HPM_P2
2020/12/07 00:01:46;;;;;;;1999.90;999.90;;;4.50;99.90;;;;;;5052876;28;20171;-62
2020/12/07 00:04:12;;;;;;;1999.90;999.90;;;4.50;99.90;;;;;;5052599;28;20172;-62
2020/12/07 00:06:38;;;;;;;1999.90;999.90;;;4.50;99.90;;;;;;5052827;28;20413;-62
2020/12/07 00:09:05;;;;;;;1999.90;999.90;;;4.50;99.90;;;;;;5052111;28;20842;-62
2020/12/07 00:11:30;;;;;;;1999.90;999.90;;;4.40;99.90;;;;;;5052500;28;20378;-61
2020/12/07 00:13:56;;;;;;;1999.90;999.90;;;4.50;99.90;;;;;;5052358;28;20214;-61
2020/12/07 00:16:22;;;;;;;1999.90;999.90;;;4.40;99.90;;;;;;5052278;28;20231;-62
2020/12/07 00:18:47;;;;;;;1999.90;999.90;;;4.40;99.90;;;;;;5052093;28;20429;-62
2020/12/07 00:21:13;;;;;;;1999.90;999.90;;;4.40;99.90;;;;;;5052451;28;20173;-62
2020/12/07 00:23:39;;;;;;;1999.90;999.90;;;4.40;99.90;;;;;;5052227;28;20276;-62
2020/12/07 00:26:10;;;;;;;1999.90;999.90;;;4.40;99.90;;;;;;5052189;28;20172;-62
2020/12/07 00:28:37;;;;;;;1999.90;999.90;;;4.40;99.90;;;;;;5051795;28;20230;-62
2020/12/07 00:31:06;;;;;;;1999.90;999.90;;;4.40;99.90;;;;;;5052077;28;20206;-62
2020/12/07 00:33:32;;;;;;;1999.90;999.90;;;4.40;99.90;;;;;;5052174;28;20183;-61
2020/12/07 00:35:58;;;;;;;1999.90;999.90;;;4.40;99.90;;;;;;5051932;28;20198;-62
2020/12/07 00:38:24;;;;;;;1999.90;999.90;;;4.40;99.90;;;;;;5051722;28;20430;-62
2020/12/07 00:40:50;;;;;;;1999.90;999.90;;;4.50;99.90;;;;;;5051869;28;20214;-60
2020/12/07 00:43:17;;;;;;;1999.90;999.90;;;4.50;99.90;;;;;;5051850;28;20167;-61
2020/12/07 00:45:42;;;;;;;1999.90;999.90;;;4.30;99.90;;;;;;5051459;28;20286;-62
2020/12/07 00:48:08;;;;;;;1999.90;999.90;;;4.30;99.90;;;;;;5051051;28;20282;-62
2020/12/07 00:50:34;;;;;;;1999.90;999.90;;;4.30;99.90;;;;;;5051728;28;20263;-61
2020/12/07 00:52:59;;;;;;;1999.90;999.90;;;4.30;99.90;;;;;;5051746;28;20262;-64
2020/12/07 00:55:25;;;;;;;1999.90;999.90;;;4.30;99.90;;;;;;5051585;28;20242;-61
2020/12/07 00:57:50;;;;;;;1999.90;999.90;;;4.30;99.90;;;;;;5051612;28;20297;-63
2020/12/07 01:00:16;;;;;;;1999.90;999.90;;;4.40;99.90;;;;;;5051393;28;20159;-63
2020/12/07 01:02:42;;;;;;;1999.90;999.90;;;4.30;99.90;;;;;;5051593;28;20167;-63
2020/12/07 01:05:07;;;;;;;1999.90;999.90;;;4.20;99.90;;;;;;5051598;28;20171;-64
2020/12/07 01:07:33;;;;;;;1999.90;999.90;;;4.20;99.90;;;;;;5051292;28;20575;-64
2020/12/07 01:09:58;;;;;;;1999.90;999.90;;;4.30;99.90;;;;;;5051403;28;20527;-64
2020/12/07 01:12:24;;;;;;;1999.90;999.90;;;4.40;99.90;;;;;;5051703;28;20168;-61
2020/12/07 01:14:51;;;;;;;1999.90;999.90;;;4.30;99.90;;;;;;5051439;28;20505;-63
2020/12/07 01:17:18;;;;;;;1999.90;999.90;;;4.30;99.90;;;;;;5051419;28;20195;-63
2020/12/07 01:19:44;;;;;;;1999.90;999.90;;;4.20;99.90;;;;;;5051249;28;20411;-64
2020/12/07 01:22:09;;;;;;;1999.90;999.90;;;4.20;99.90;;;;;;5051525;28;20174;-63
2020/12/07 01:24:35;;;;;;;1999.90;999.90;;;4.20;99.90;;;;;;5051234;28;20607;-63
2020/12/07 01:27:00;;;;;;;1999.90;999.90;;;4.20;99.90;;;;;;5051281;28;20255;-63
2020/12/07 01:29:26;;;;;;;1999.90;999.90;;;4.20;99.90;;;;;;5050914;28;20191;-63
2020/12/07 01:31:52;;;;;;;1999.90;999.90;;;4.10;99.90;;;;;;5051248;28;20176;-63
2020/12/07 01:34:17;;;;;;;1999.90;999.90;;;4.10;99.90;;;;;;5051200;28;20643;-63
2020/12/07 01:36:43;;;;;;;1999.90;999.90;;;4.10;99.90;;;;;;5051093;28;20202;-63
2020/12/07 01:39:08;;;;;;;1999.90;999.90;;;4.10;99.90;;;;;;5050821;28;20626;-63
2020/12/07 01:41:34;;;;;;;1999.90;999.90;;;4.10;99.90;;;;;;5051173;28;20249;-63
2020/12/07 01:44:00;;;;;;;1999.90;999.90;;;4.10;99.90;;;;;;5051033;28;20179;-63
2020/12/07 01:46:25;;;;;;;1999.90;999.90;;;4.10;99.90;;;;;;5050937;28;20212;-61
2020/12/07 01:48:55;;;;;;;1999.90;999.90;;;4.10;99.90;;;;;;5050777;28;20191;-63
2020/12/07 01:51:21;;;;;;;1999.90;999.90;;;4.10;99.90;;;;;;5050992;28;20245;-62
2020/12/07 01:53:48;;;;;;;1999.90;999.90;;;4.20;99.90;;;;;;5050830;28;20172;-63
2020/12/07 01:56:28;;;;;;;1999.90;999.90;;;4.10;99.90;;;;;;5050916;28;20541;-63
2020/12/07 01:58:57;;;;;;;1999.90;999.90;;;4.20;99.90;;;;;;5055965;28;20187;-63
2020/12/07 02:01:23;;;;;;;1999.90;999.90;;;4.20;99.90;;;;;;5057558;28;20213;-62
2020/12/07 02:03:48;;;;;;;1999.90;999.90;;;4.20;99.90;;;;;;5057594;28;20641;-63
2020/12/07 02:06:14;;;;;;;1999.90;999.90;;;4.20;99.90;;;;;;5057696;28;20406;-63
2020/12/07 02:08:39;;;;;;;1999.90;999.90;;;4.10;99.90;;;;;;5057394;28;20202;-63
2020/12/07 02:11:05;;;;;;;1999.90;999.90;;;4.00;99.90;;;;;;5057797;28;20258;-63
2020/12/07 02:13:31;;;;;;;1999.90;999.90;;;4.00;99.90;;;;;;5057465;28;20167;-63
2020/12/07 02:15:57;;;;;;;1999.90;999.90;;;4.00;99.90;;;;;;5057338;28;20198;-62
2020/12/07 02:18:22;;;;;;;1999.90;999.90;;;4.00;99.90;;;;;;5057208;28;20417;-63
2020/12/07 02:20:49;;;;;;;1999.90;999.90;;;4.00;99.90;;;;;;5057214;28;20406;-63
2020/12/07 02:23:16;;;;;;;1999.90;999.90;;;4.00;99.90;;;;;;5057236;28;20640;-63
2020/12/07 02:25:42;;;;;;;1999.90;999.90;;;4.00;99.90;;;;;;5057162;28;20707;-63
2020/12/07 02:28:08;;;;;;;1999.90;999.90;;;4.00;99.90;;;;;;5056915;28;20198;-64
2020/12/07 02:30:33;;;;;;;1999.90;999.90;;;4.00;99.90;;;;;;5057051;28;20633;-64
2020/12/07 02:32:59;;;;;;;1999.90;999.90;;;4.10;99.90;;;;;;5057346;28;20171;-64
2020/12/07 02:35:24;;;;;;;1999.90;999.90;;;4.10;99.90;;;;;;5057308;28;20249;-64
2020/12/07 02:37:50;;;;;;;1999.90;999.90;;;4.20;99.90;;;;;;5057312;28;20188;-63
2020/12/07 02:40:16;;;;;;;1999.90;999.90;;;4.20;99.90;;;;;;5057161;28;20190;-62
2020/12/07 02:42:42;;;;;;;1999.90;999.90;;;4.10;99.90;;;;;;5057380;28;20178;-64
2020/12/07 02:45:11;;;;;;;1999.90;999.90;;;4.10;99.90;;;;;;5057132;28;20720;-62
2020/12/07 02:47:37;;;;;;;1999.90;999.90;;;4.10;99.90;;;;;;5057399;28;20401;-64
2020/12/07 02:50:05;;;;;;;1999.90;999.90;;;4.10;99.90;;;;;;5056904;28;20168;-64
2020/12/07 02:52:31;;;;;;;1999.90;999.90;;;4.10;99.90;;;;;;5057478;28;20174;-64
2020/12/07 02:54:58;;;;;;;1999.90;999.90;;;4.10;99.90;;;;;;5057126;28;20639;-64
2020/12/07 02:57:24;;;;;;;1999.90;999.90;;;4.00;99.90;;;;;;5057260;28;20235;-64
2020/12/07 02:59:51;;;;;;;1999.90;999.90;;;4.00;99.90;;;;;;5057014;28;20191;-63
2020/12/07 03:02:17;;;;;;;1999.90;999.90;;;4.00;99.90;;;;;;5057160;28;20958;-64
2020/12/07 03:04:42;;;;;;;1999.90;999.90;;;4.00;99.90;;;;;;5056859;28;20172;-64
2020/12/07 03:07:08;;;;;;;1999.90;999.90;;;4.10;99.90;;;;;;5056907;28;20174;-64
2020/12/07 03:09:34;;;;;;;1999.90;999.90;;;4.10;99.90;;;;;;5054071;28;20195;-64
2020/12/07 03:12:00;;;;;;;1999.90;999.90;;;4.10;99.90;;;;;;5053658;28;20172;-64
2020/12/07 03:14:26;;;;;;;1999.90;999.90;;;4.10;99.90;;;;;;5053565;28;20172;-63
2020/12/07 03:16:53;;;;;;;1999.90;999.90;;;4.00;99.90;;;;;;5053567;28;20195;-63
2020/12/07 03:19:19;;;;;;;1999.90;999.90;;;3.90;99.90;;;;;;5053268;28;20234;-64
2020/12/07 03:21:45;;;;;;;1999.90;999.90;;;3.90;99.90;;;;;;5053589;28;20176;-63
2020/12/07 03:24:10;;;;;;;1999.90;999.90;;;3.90;99.90;;;;;;5053581;28;20489;-63
2020/12/07 03:26:36;;;;;;;1999.90;999.90;;;3.80;99.90;;;;;;5053531;28;20267;-63
2020/12/07 03:29:03;;;;;;;1999.90;999.90;;;3.90;99.90;;;;;;5053047;28;20191;-64
2020/12/07 03:31:30;;;;;;;1999.90;999.90;;;3.90;99.90;;;;;;5053515;28;20797;-64
2020/12/07 03:33:56;;;;;;;1999.90;999.90;;;3.90;99.90;;;;;;5053297;28;20190;-64
2020/12/07 03:36:22;;;;;;;1999.90;999.90;;;3.90;99.90;;;;;;5053086;28;20231;-64
2020/12/07 03:38:48;;;;;;;1999.90;999.90;;;4.00;99.90;;;;;;5052943;28;20226;-63
2020/12/07 03:41:13;;;;;;;1999.90;999.90;;;3.90;99.90;;;;;;5053149;28;20168;-64
2020/12/07 03:43:39;;;;;;;1999.90;999.90;;;4.00;99.90;;;;;;5053033;28;20163;-64
2020/12/07 03:46:05;;;;;;;1999.90;999.90;;;4.00;99.90;;;;;;5053032;28;20172;-63
2020/12/07 03:48:30;;;;;;;1999.90;999.90;;;3.90;99.90;;;;;;5052637;28;20190;-64
2020/12/07 03:50:56;;;;;;;1999.90;999.90;;;3.90;99.90;;;;;;5052877;28;20171;-64
2020/12/07 03:53:21;;;;;;;1999.90;999.90;;;3.90;99.90;;;;;;5052786;28;20645;-64
2020/12/07 03:55:47;;;;;;;1999.90;999.90;;;3.90;99.90;;;;;;5052746;28;20191;-63
2020/12/07 03:58:12;;;;;;;1999.90;999.90;;;3.90;99.90;;;;;;5052481;28;20282;-64
2020/12/07 04:00:38;;;;;;;1999.90;999.90;;;4.00;99.90;;;;;;5052719;28;20164;-64
2020/12/07 04:03:07;;;;;;;1999.90;999.90;;;4.00;99.90;;;;;;5052655;28;20285;-64
2020/12/07 04:05:38;;;;;;;1999.90;999.90;;;4.00;99.90;;;;;;5052681;28;20183;-64
2020/12/07 04:08:04;;;;;;;1999.90;999.90;;;4.00;99.90;;;;;;5052366;28;20219;-64
2020/12/07 04:10:30;;;;;;;1999.90;999.90;;;4.00;99.90;;;;;;5052351;28;20172;-64
2020/12/07 04:12:56;;;;;;;1999.90;999.90;;;4.00;99.90;;;;;;5052530;28;20186;-63
2020/12/07 04:15:22;;;;;;;1999.90;999.90;;;4.00;99.90;;;;;;5052373;28;20480;-63
2020/12/07 04:17:47;;;;;;;1999.90;999.90;;;4.00;99.90;;;;;;5052258;28;20194;-63
2020/12/07 04:20:13;;;;;;;1999.90;999.90;;;4.00;99.90;;;;;;5052112;28;20164;-64
2020/12/07 04:22:38;;;;;;;1999.90;999.90;;;4.00;99.90;;;;;;5052288;28;20164;-64
2020/12/07 04:25:04;;;;;;;1999.90;999.90;;;4.00;99.90;;;;;;5052213;28;20164;-63
2020/12/07 04:27:30;;;;;;;1999.90;999.90;;;4.00;99.90;;;;;;5052289;28;20164;-63
2020/12/07 04:29:55;;;;;;;1999.90;999.90;;;4.10;99.90;;;;;;5052140;28;20641;-64
2020/12/07 04:32:21;;;;;;;1999.90;999.90;;;4.10;99.90;;;;;;5052196;28;20175;-64
2020/12/07 04:34:46;;;;;;;1999.90;999.90;;;4.10;99.90;;;;;;5052305;28;20202;-64
2020/12/07 04:37:12;;;;;;;1999.90;999.90;;;4.00;99.90;;;;;;5052021;28;20234;-64
2020/12/07 04:39:38;;;;;;;1999.90;999.90;;;4.00;99.90;;;;;;5051727;28;20211;-63
2020/12/07 04:42:05;;;;;;;1999.90;999.90;;;4.00;99.90;;;;;;5051942;28;20209;-64
2020/12/07 04:44:31;;;;;;;1999.90;999.90;;;4.00;99.90;;;;;;5051861;28;20174;-64
2020/12/07 04:46:59;;;;;;;1999.90;999.90;;;4.00;99.90;;;;;;5051859;28;20258;-64
2020/12/07 04:49:28;;;;;;;1999.90;999.90;;;4.00;99.90;;;;;;5051484;28;20206;-64
2020/12/07 04:51:54;;;;;;;1999.90;999.90;;;4.00;99.90;;;;;;5051762;28;20164;-64
2020/12/07 04:54:21;;;;;;;1999.90;999.90;;;4.10;99.90;;;;;;5051717;28;20182;-65
2020/12/07 04:56:47;;;;;;;1999.90;999.90;;;4.00;99.90;;;;;;5051623;28;20191;-64
2020/12/07 04:59:14;;;;;;;1999.90;999.90;;;4.00;99.90;;;;;;5051232;28;20188;-64
2020/12/07 05:01:40;;;;;;;1999.90;999.90;;;4.00;99.90;;;;;;5051711;28;20576;-64
2020/12/07 05:04:05;;;;;;;1999.90;999.90;;;4.00;99.90;;;;;;5051498;28;20167;-64
2020/12/07 05:06:31;;;;;;;1999.90;999.90;;;4.00;99.90;;;;;;5051650;28;20167;-64
2020/12/07 05:08:58;;;;;;;1999.90;999.90;;;4.00;99.90;;;;;;5051590;28;20199;-64
2020/12/07 05:11:27;;;;;;;1999.90;999.90;;;4.10;99.90;;;;;;5051385;28;20229;-64
2020/12/07 05:14:01;;;;;;;1999.90;999.90;;;4.10;99.90;;;;;;5051309;28;20172;-64
2020/12/07 05:16:28;;;;;;;1999.90;999.90;;;4.10;99.90;;;;;;5051288;28;20202;-64
2020/12/07 05:18:53;;;;;;;1999.90;999.90;;;4.10;99.90;;;;;;5051309;28;20564;-64
2020/12/07 05:21:19;;;;;;;1999.90;999.90;;;4.20;99.90;;;;;;5051440;28;20247;-61
2020/12/07 05:23:50;;;;;;;1999.90;999.90;;;4.20;99.90;;;;;;5051152;28;20234;-64
2020/12/07 05:26:18;;;;;;;1999.90;999.90;;;4.20;99.90;;;;;;5051105;28;20168;-65
2020/12/07 05:28:49;;;;;;;1999.90;999.90;;;4.20;99.90;;;;;;5050844;28;20187;-63
2020/12/07 05:31:17;;;;;;;1999.90;999.90;;;4.10;99.90;;;;;;5051234;28;20250;-63
2020/12/07 05:33:46;;;;;;;1999.90;999.90;;;4.00;99.90;;;;;;5050727;28;20347;-64
2020/12/07 05:36:11;;;;;;;1999.90;999.90;;;4.00;99.90;;;;;;5050879;28;20653;-63
2020/12/07 05:38:37;;;;;;;1999.90;999.90;;;4.00;99.90;;;;;;5050685;28;20288;-63
2020/12/07 05:41:04;;;;;;;1999.90;999.90;;;4.00;99.90;;;;;;5050843;28;20168;-63
2020/12/07 05:43:31;;;;;;;1999.90;999.90;;;3.90;99.90;;;;;;5050912;28;20398;-63
2020/12/07 05:45:58;;;;;;;1999.90;999.90;;;3.90;99.90;;;;;;5050865;28;20262;-63
2020/12/07 05:48:32;;;;;;;1999.90;999.90;;;3.90;99.90;;;;;;5050575;28;20188;-64
2020/12/07 05:51:05;;;;;;;1999.90;999.90;;;3.90;99.90;;;;;;5050927;28;20235;-63
2020/12/07 05:53:36;;;;;;;1999.90;999.90;;;3.90;99.90;;;;;;5052644;28;20228;-63
2020/12/07 05:56:03;;;;;;;1999.90;999.90;;;3.90;99.90;;;;;;5052589;28;20206;-64
2020/12/07 05:58:30;;;;;;;1999.90;999.90;;;3.90;99.90;;;;;;5052101;28;20563;-65
2020/12/07 06:00:58;;;;;;;1999.90;999.90;;;4.00;99.90;;;;;;5052795;28;20198;-63
2020/12/07 06:03:24;;;;;;;1999.90;999.90;;;4.00;99.90;;;;;;5052909;28;20174;-64
2020/12/07 06:05:50;;;;;;;1999.90;999.90;;;4.00;99.90;;;;;;5052457;28;20203;-64
2020/12/07 06:08:24;;;;;;;1999.90;999.90;;;4.00;99.90;;;;;;5052491;28;20258;-61
2020/12/07 06:11:02;;;;;;;1999.90;999.90;;;4.00;99.90;;;;;;5053345;28;20171;-65
2020/12/07 06:13:30;;;;;;;1999.90;999.90;;;4.00;99.90;;;;;;5053317;28;20172;-64
2020/12/07 06:15:56;;;;;;;1999.90;999.90;;;4.00;99.90;;;;;;5053805;28;20210;-65
2020/12/07 06:18:32;;;;;;;1999.90;999.90;;;4.00;99.90;;;;;;5052329;28;20191;-64
2020/12/07 06:21:05;;;;;;;1999.90;999.90;;;4.00;99.90;;;;;;5053378;28;20773;-65
2020/12/07 06:23:36;;;;;;;1999.90;999.90;;;4.00;99.90;;;;;;5052254;28;20163;-64
2020/12/07 06:26:03;;;;;;;1999.90;999.90;;;4.10;99.90;;;;;;5051983;28;20525;-65
2020/12/07 06:28:35;;;;;;;1999.90;999.90;;;4.10;99.90;;;;;;5051778;28;20282;-64
2020/12/07 06:31:10;;;;;;;1999.90;999.90;;;4.10;99.90;;;;;;5051019;28;20178;-64
2020/12/07 06:33:45;;;;;;;1999.90;999.90;;;4.10;99.90;;;;;;5050741;28;20210;-63
2020/12/07 06:36:26;;;;;;;1999.90;999.90;;;4.20;99.90;;;;;;5050526;28;20274;-64
2020/12/07 06:38:53;;;;;;;1999.90;999.90;;;4.10;99.90;;;;;;5050105;28;20195;-61
2020/12/07 06:41:33;;;;;;;1999.90;999.90;;;4.10;99.90;;;;;;5050254;28;20215;-60
2020/12/07 06:44:01;;;;;;;1999.90;999.90;;;4.10;99.90;;;;;;5050558;28;20531;-64
2020/12/07 06:46:49;;;;;;;1999.90;999.90;;;4.10;99.90;;;;;;5054035;28;20167;-63
2020/12/07 06:49:15;;;;;;;1999.90;999.90;;;4.20;99.90;;;;;;5053760;28;20568;-62
2020/12/07 06:51:45;;;;;;;1999.90;999.90;;;4.20;99.90;;;;;;5053941;28;20199;-64
2020/12/07 06:57:21;;;;;;;1999.90;999.90;;;4.20;99.90;;;;;;5053981;28;20210;-63
2020/12/07 06:59:56;;;;;;;1999.90;999.90;;;4.20;99.90;;;;;;5053654;28;20585;-63
2020/12/07 07:02:21;;;;;;;1999.90;999.90;;;4.20;99.90;;;;;;5053760;28;20163;-63
2020/12/07 07:05:06;;;;;;;1999.90;999.90;;;4.20;99.90;;;;;;5053856;28;20190;-63
2020/12/07 07:07:32;;;;;;;1999.90;999.90;;;4.20;99.90;;;;;;5052538;28;20660;-62
2020/12/07 07:09:59;;;;;;;1999.90;999.90;;;4.30;99.90;;;;;;5053464;28;20255;-63
2020/12/07 07:12:25;;;;;;;1999.90;999.90;;;4.30;99.90;;;;;;5053530;28;20937;-63
2020/12/07 07:14:56;;;;;;;1999.90;999.90;;;4.30;99.90;;;;;;5053551;28;20168;-63
2020/12/07 07:17:24;;;;;;;1999.90;999.90;;;4.20;99.90;;;;;;5053339;28;20295;-63
2020/12/07 07:19:50;;;;;;;1999.90;999.90;;;4.20;99.90;;;;;;5053249;28;20175;-62
2020/12/07 07:22:16;;;;;;;1999.90;999.90;;;4.30;99.90;;;;;;5053489;28;20171;-63
2020/12/07 07:29:59;;;;;;;1999.90;999.90;;;4.20;99.90;;;;;;5053197;28;20206;-63
2020/12/07 07:32:24;;;;;;;1999.90;999.90;;;4.20;99.90;;;;;;5053286;28;20223;-61
2020/12/07 07:34:50;;;;;;;1999.90;999.90;;;4.20;99.90;;;;;;5053272;28;20171;-63
2020/12/07 07:37:17;;;;;;;1999.90;999.90;;;4.20;99.90;;;;;;5053128;28;20195;-63
2020/12/07 07:39:47;;;;;;;1999.90;999.90;;;4.20;99.90;;;;;;5052830;28;20688;-63
2020/12/07 07:42:14;;;;;;;1999.90;999.90;;;4.20;99.90;;;;;;5053251;28;20596;-63
2020/12/07 07:44:44;;;;;;;1999.90;999.90;;;4.20;99.90;;;;;;5053091;28;20164;-64
2020/12/07 07:47:16;;;;;;;1999.90;999.90;;;4.20;99.90;;;;;;5052988;28;20174;-63
2020/12/07 07:58:05;;;;;;;1999.90;999.90;;;4.30;99.90;;;;;;5052570;28;20499;-63
2020/12/07 08:17:11;;;;;;;1999.90;999.90;;;4.50;99.90;;;;;;5052450;28;20272;-63
2020/12/07 08:19:37;;;;;;;1999.90;999.90;;;4.50;99.90;;;;;;5052067;28;20238;-63
2020/12/07 08:22:17;;;;;;;1999.90;999.90;;;4.50;99.90;;;;;;5052409;28;20503;-61
2020/12/07 08:24:56;;;;;;;1999.90;999.90;;;4.40;99.90;;;;;;5052267;28;20175;-61
2020/12/07 08:27:22;;;;;;;1999.90;999.90;;;4.40;99.90;;;;;;5052210;28;20186;-63
2020/12/07 08:29:47;;;;;;;1999.90;999.90;;;4.40;99.90;;;;;;5051932;28;20171;-63
2020/12/07 08:32:23;;;;;;;1999.90;999.90;;;4.40;99.90;;;;;;5052385;28;20225;-63
2020/12/07 08:34:49;;;;;;;1999.90;999.90;;;4.40;99.90;;;;;;5052197;28;20167;-63
2020/12/07 08:37:15;;;;;;;1999.90;999.90;;;4.40;99.90;;;;;;5051991;28;20211;-64
2020/12/07 08:39:41;;;;;;;1999.90;999.90;;;4.50;99.90;;;;;;5051680;28;20183;-64
2020/12/07 08:42:07;;;;;;;1999.90;999.90;;;4.60;99.90;;;;;;5051911;28;20175;-63
2020/12/07 08:44:33;;;;;;;1999.90;999.90;;;4.60;99.90;;;;;;5051742;28;20178;-64
2020/12/07 08:46:59;;;;;;;1999.90;999.90;;;4.70;99.90;;;;;;5054216;28;20532;-63
2020/12/07 08:49:24;;;;;;;1999.90;999.90;;;4.70;99.90;;;;;;5054623;28;20219;-65
2020/12/07 08:51:52;;;;;;;1999.90;999.90;;;4.80;99.90;;;;;;5054644;28;20168;-65
2020/12/07 08:54:17;;;;;;;1999.90;999.90;;;4.80;99.90;;;;;;5054456;28;20174;-65
2020/12/07 08:56:43;;;;;;;1999.90;999.90;;;4.90;99.90;;;;;;5053709;28;20195;-64
2020/12/07 08:59:08;;;;;;;1999.90;999.90;;;4.90;99.90;;;;;;5053780;28;20195;-64
2020/12/07 09:01:34;;;;;;;1999.90;999.90;;;4.90;99.90;;;;;;5054541;28;20219;-64
2020/12/07 09:04:02;;;;;;;1999.90;999.90;;;4.90;99.90;;;;;;5054591;28;20175;-64
2020/12/07 09:06:28;;;;;;;1999.90;999.90;;;5.00;99.90;;;;;;5054335;28;20187;-64
2020/12/07 09:08:54;;;;;;;1999.90;999.90;;;5.00;99.90;;;;;;5053841;28;20457;-63
2020/12/07 09:11:19;;;;;;;1999.90;999.90;;;5.00;99.90;;;;;;5054204;28;20555;-64
2020/12/07 09:13:46;;;;;;;1999.90;999.90;;;5.10;99.90;;;;;;5054033;28;20175;-63
2020/12/07 09:16:11;;;;;;;1999.90;999.90;;;5.10;99.90;;;;;;5053738;28;20618;-63
2020/12/07 09:18:37;;;;;;;1999.90;999.90;;;5.20;99.90;;;;;;5053363;28;20422;-64
2020/12/07 09:21:07;;;;;;;1999.90;999.90;;;5.10;99.90;;;;;;5052927;28;20221;-64
2020/12/07 09:23:34;;;;;;;1999.90;999.90;;;5.20;99.90;;;;;;5052587;28;20172;-64
2020/12/07 09:26:01;;;;;;;1999.90;999.90;;;5.10;99.90;;;;;;5052658;28;20231;-64
2020/12/07 09:28:27;;;;;;;1999.90;999.90;;;5.10;99.90;;;;;;5037980;28;20196;-65
2020/12/07 09:30:53;;;;;;;1999.90;999.90;;;5.20;99.90;;;;;;5030294;28;20174;-65
2020/12/07 09:33:18;;;;;;;1999.90;999.90;;;5.20;99.90;;;;;;5030536;28;20173;-65
2020/12/07 09:35:44;;;;;;;1999.90;999.90;;;5.20;99.90;;;;;;5030398;28;20195;-65
2020/12/07 09:38:10;;;;;;;1999.90;999.90;;;5.20;99.90;;;;;;5030187;28;20184;-63
2020/12/07 09:40:35;;;;;;;1999.90;999.90;;;5.30;99.90;;;;;;5030733;28;20168;-64
2020/12/07 09:43:01;;;;;;;1999.90;999.90;;;5.40;99.90;;;;;;5030965;28;20811;-65
2020/12/07 09:45:31;;;;;;;1999.90;999.90;;;5.40;99.90;;;;;;5031659;28;20926;-65
2020/12/07 09:47:57;;;;;;;1999.90;999.90;;;5.40;99.90;;;;;;5032887;28;20570;-64
2020/12/07 09:50:22;;;;;;;1999.90;999.90;;;5.50;99.90;;;;;;5032693;28;20447;-63
2020/12/07 09:52:48;;;;;;;1999.90;999.90;;;5.40;99.90;;;;;;5031608;28;20406;-65
2020/12/07 09:55:14;;;;;;;1999.90;999.90;;;5.50;99.90;;;;;;5032660;28;20164;-64
2020/12/07 09:57:39;;;;;;;1999.90;999.90;;;5.50;99.90;;;;;;5033211;28;20239;-65
2020/12/07 10:00:05;;;;;;;1999.90;999.90;;;5.60;99.90;;;;;;5033050;28;20164;-65
2020/12/07 10:02:31;;;;;;;1999.90;999.90;;;5.50;99.90;;;;;;5034408;28;20574;-64
2020/12/07 10:04:57;;;;;;;1999.90;999.90;;;5.50;99.90;;;;;;5034497;28;20418;-65
2020/12/07 10:07:25;;;;;;;1999.90;999.90;;;5.60;99.90;;;;;;5034822;28;20403;-64
2020/12/07 10:09:50;;;;;;;1999.90;999.90;;;5.60;99.90;;;;;;5033952;28;20415;-65
2020/12/07 10:12:16;;;;;;;1999.90;999.90;;;5.70;99.90;;;;;;5035040;28;20493;-64
2020/12/07 10:14:41;;;;;;;1999.90;999.90;;;5.70;99.90;;;;;;5034173;28;20543;-65
2020/12/07 10:17:07;;;;;;;1999.90;999.90;;;5.80;99.90;;;;;;5033805;28;20283;-65
2020/12/07 10:19:33;;;;;;;1999.90;999.90;;;5.80;99.90;;;;;;5036952;28;20199;-63
2020/12/07 10:22:01;;;;;;;1999.90;999.90;;;5.80;99.90;;;;;;5040755;28;20211;-63
2020/12/07 10:24:27;;;;;;;1999.90;999.90;;;5.90;99.90;;;;;;5040067;28;20168;-64
2020/12/07 10:26:54;;;;;;;1999.90;999.90;;;5.80;99.90;;;;;;5039411;28;20465;-64
2020/12/07 10:29:19;;;;;;;1999.90;999.90;;;5.80;99.90;;;;;;5037371;28;20223;-63
2020/12/07 10:31:45;;;;;;;1999.90;999.90;;;5.80;99.90;;;;;;5039478;28;20399;-64
2020/12/07 10:34:11;;;;;;;1999.90;999.90;;;5.80;99.90;;;;;;5040283;28;20191;-65
2020/12/07 10:36:38;;;;;;;1999.90;999.90;;;5.90;99.90;;;;;;5035345;28;20195;-65
2020/12/07 10:39:06;;;;;;;1999.90;999.90;;;5.90;99.90;;;;;;5035769;28;20207;-66
2020/12/07 10:41:32;;;;;;;1999.90;999.90;;;5.90;99.90;;;;;;5034620;28;20454;-65
2020/12/07 10:43:57;;;;;;;1999.90;999.90;;;6.00;99.90;;;;;;5033524;28;20888;-64
2020/12/07 10:46:25;;;;;;;1999.90;999.90;;;6.00;99.90;;;;;;5034314;28;20741;-64
2020/12/07 10:48:51;;;;;;;1999.90;999.90;;;6.10;99.90;;;;;;5034530;28;20192;-62
2020/12/07 10:51:18;;;;;;;1999.90;999.90;;;6.10;99.90;;;;;;5035024;28;20411;-64
2020/12/07 10:53:44;;;;;;;1999.90;999.90;;;6.20;99.90;;;;;;5034065;28;20190;-61
2020/12/07 10:56:10;;;;;;;1999.90;999.90;;;6.30;99.90;;;;;;5033945;28;20446;-63
2020/12/07 10:58:39;;;;;;;1999.90;999.90;;;6.30;99.90;;;;;;5032992;28;20458;-65
2020/12/07 11:01:06;;;;;;;1999.90;999.90;;;6.40;99.90;;;;;;5032737;28;20405;-64
2020/12/07 11:03:31;;;;;;;1999.90;999.90;;;6.40;99.90;;;;;;5031872;28;20395;-64
2020/12/07 11:05:57;;;;;;;1999.90;999.90;;;6.40;99.90;;;;;;5031314;28;20942;-65
2020/12/07 11:08:38;;;;;;;1999.90;999.90;;;6.30;99.90;;;;;;5031317;28;20263;-64
2020/12/07 11:11:07;;;;;;;1999.90;999.90;;;6.30;99.90;;;;;;5031748;28;20578;-64
2020/12/07 11:13:32;;;;;;;1999.90;999.90;;;6.30;99.90;;;;;;5039073;28;20438;-63
2020/12/07 11:16:01;;;;;;;1999.90;999.90;;;6.40;99.90;;;;;;5053287;28;20438;-63
2020/12/07 11:18:29;;;;;;;1999.90;999.90;;;6.40;99.90;;;;;;5052567;28;20271;-64
2020/12/07 11:20:55;;;;;;;1999.90;999.90;;;6.50;99.90;;;;;;5053194;28;20818;-64
2020/12/07 11:23:21;;;;;;;1999.90;999.90;;;6.60;99.90;;;;;;5053276;28;20477;-63
2020/12/07 11:25:46;;;;;;;1999.90;999.90;;;6.60;99.90;;;;;;5052789;28;20406;-64
2020/12/07 11:28:12;;;;;;;1999.90;999.90;;;6.60;99.90;;;;;;5052184;28;20430;-65
2020/12/07 11:30:37;;;;;;;1999.90;999.90;;;6.80;99.90;;;;;;5052111;28;20254;-65
2020/12/07 11:33:03;;;;;;;1999.90;999.90;;;6.70;99.90;;;;;;5051816;28;20533;-64
2020/12/07 11:35:29;;;;;;;1999.90;999.90;;;6.80;99.90;;;;;;5052049;28;20168;-64
2020/12/07 11:38:10;;;;;;;1999.90;999.90;;;6.70;99.90;;;;;;5051927;28;20625;-63
2020/12/07 11:45:43;;;;;;;1999.90;999.90;;;6.50;99.90;;;;;;5052488;28;20414;-64
2020/12/07 11:48:09;;;;;;;1999.90;999.90;;;6.40;99.90;;;;;;5051651;28;20429;-65
2020/12/07 11:50:35;;;;;;;1999.90;999.90;;;6.30;99.90;;;;;;5051831;28;20420;-64
2020/12/07 11:53:01;;;;;;;1999.90;999.90;;;6.20;99.90;;;;;;5052019;28;20406;-65
2020/12/07 11:55:26;;;;;;;1999.90;999.90;;;6.20;99.90;;;;;;5052125;28;20171;-65
2020/12/07 11:57:52;;;;;;;1999.90;999.90;;;6.10;99.90;;;;;;5051559;28;20916;-63
2020/12/07 12:00:17;;;;;;;1999.90;999.90;;;6.10;99.90;;;;;;5052033;28;20250;-65
2020/12/07 12:02:43;;;;;;;1999.90;999.90;;;6.10;99.90;;;;;;5051875;28;20207;-65
2020/12/07 12:05:09;;;;;;;1999.90;999.90;;;6.10;99.90;;;;;;5050891;28;20179;-65
2020/12/07 12:07:34;;;;;;;1999.90;999.90;;;6.10;99.90;;;;;;5051345;28;20178;-64
2020/12/07 12:10:00;;;;;;;1999.90;999.90;;;6.10;99.90;;;;;;5051111;28;20297;-65
2020/12/07 12:12:26;;;;;;;1999.90;999.90;;;6.00;99.90;;;;;;5050576;28;20178;-65
2020/12/07 12:14:52;;;;;;;1999.90;999.90;;;6.00;99.90;;;;;;5051614;28;20186;-65
2020/12/07 12:17:17;;;;;;;1999.90;999.90;;;6.10;99.90;;;;;;5051167;28;20947;-65
2020/12/07 12:19:43;;;;;;;1999.90;999.90;;;6.10;99.90;;;;;;5050730;28;20195;-65
2020/12/07 12:22:09;;;;;;;1999.90;999.90;;;6.10;99.90;;;;;;5051408;28;20168;-65
2020/12/07 12:24:34;;;;;;;1999.90;999.90;;;6.00;99.90;;;;;;5050945;28;20506;-64
2020/12/07 12:27:00;;;;;;;1999.90;999.90;;;6.00;99.90;;;;;;5050474;28;20176;-65
2020/12/07 12:29:25;;;;;;;1999.90;999.90;;;6.10;99.90;;;;;;5050829;28;20199;-64
2020/12/07 12:31:51;;;;;;;1999.90;999.90;;;6.10;99.90;;;;;;5050791;28;20175;-65
2020/12/07 12:34:16;;;;;;;1999.90;999.90;;;6.10;99.90;;;;;;5050730;28;20549;-66
2020/12/07 12:36:43;;;;;;;1999.90;999.90;;;6.10;99.90;;;;;;5050856;28;20286;-65
2020/12/07 12:39:08;;;;;;;1999.90;999.90;;;6.10;99.90;;;;;;5050394;28;20679;-65
2020/12/07 12:41:34;;;;;;;1999.90;999.90;;;6.20;99.90;;;;;;5050244;28;20414;-65
2020/12/07 12:44:01;;;;;;;1999.90;999.90;;;6.20;99.90;;;;;;5050421;28;20184;-64
2020/12/07 12:46:26;;;;;;;1999.90;999.90;;;6.30;99.90;;;;;;5050606;28;20605;-65